sensor_id;sensor_type;location;lat;lon;timestamp;temperature;humidity
37410;DHT22;23275;48.914;12.566;2024-01-10T00:01:55;-5.60;99.90
37410;DHT22;23275;48.914;12.566;2024-01-10T00:04:21;-5.60;99.90
37410;DHT22;23275;48.914;12.566;2024-01-10T00:06:47;-5.60;99.90
37410;DHT22;23275;48.914;12.566;2024-01-10T00:09:12;-5.60;99.90
37410;DHT22;23275;48.914;12.566;2024-01-10T00:11:38;-5.60;99.90
37410;DHT22;23275;48.914;12.566;2024-01-10T00:14:04;-5.70;99.90
37410;DHT22;23275;48.914;12.566;2024-01-10T00:16:29;-5.70;99.90
37410;DHT22;23275;48.914;12.566;2024-01-10T00:18:55;-5.70;99.90
37410;DHT22;23275;48.914;12.566;2024-01-10T00:21:21;-5.80;99.90
37410;DHT22;23275;48.914;12.566;2024-01-10T00:23:46;-5.80;99.90
37410;DHT22;23275;48.914;12.566;2024-01-10T00:26:12;-5.80;99.90
37410;DHT22;23275;48.914;12.566;2024-01-10T00:28:37;-5.80;99.90
37410;DHT22;23275;48.914;12.566;2024-01-10T00:31:03;-5.80;99.90
37410;DHT22;23275;48.914;12.566;2024-01-10T00:33:29;-5.70;99.90
37410;DHT22;23275;48.914;12.566;2024-01-10T00:35:54;-5.80;99.90
37410;DHT22;23275;48.914;12.566;2024-01-10T00:38:20;-5.80;99.90
37410;DHT22;23275;48.914;12.566;2024-01-10T00:40:46;-5.80;99.90
37410;DHT22;23275;48.914;12.566;2024-01-10T00:43:11;-5.80;99.90
37410;DHT22;23275;48.914;12.566;2024-01-10T00:45:37;-5.80;99.90
37410;DHT22;23275;48.914;12.566;2024-01-10T00:48:03;-5.80;99.90
37410;DHT22;23275;48.914;12.566;2024-01-10T00:50:29;-5.90;99.90
37410;DHT22;23275;48.914;12.566;2024-01-10T00:52:54;-5.90;99.90
37410;DHT22;23275;48.914;12.566;2024-01-10T00:55:20;-5.90;99.90
37410;DHT22;23275;48.914;12.566;2024-01-10T00:57:46;-5.90;99.90
37410;DHT22;23275;48.914;12.566;2024-01-10T01:00:12;-5.90;99.90
37410;DHT22;23275;48.914;12.566;2024-01-10T01:02:38;-5.90;99.90
37410;DHT22;23275;48.914;12.566;2024-01-10T01:05:07;-5.90;99.90
37410;DHT22;23275;48.914;12.566;2024-01-10T01:07:33;-6.00;99.90
37410;DHT22;23275;48.914;12.566;2024-01-10T01:09:59;-6.00;99.90
37410;DHT22;23275;48.914;12.566;2024-01-10T01:12:25;-6.00;99.90
37410;DHT22;23275;48.914;12.566;2024-01-10T01:14:51;-6.00;99.90
37410;DHT22;23275;48.914;12.566;2024-01-10T01:17:16;-6.00;99.90
37410;DHT22;23275;48.914;12.566;2024-01-10T01:19:42;-6.00;99.90
37410;DHT22;23275;48.914;12.566;2024-01-10T01:22:08;-6.00;99.90
37410;DHT22;23275;48.914;12.566;2024-01-10T01:24:33;-6.00;99.90
37410;DHT22;23275;48.914;12.566;2024-01-10T01:26:59;-6.00;99.90
37410;DHT22;23275;48.914;12.566;2024-01-10T01:29:24;-6.10;99.90
37410;DHT22;23275;48.914;12.566;2024-01-10T01:31:50;-6.10;99.90
37410;DHT22;23275;48.914;12.566;2024-01-10T01:34:16;-6.10;99.90
37410;DHT22;23275;48.914;12.566;2024-01-10T01:36:41;-6.20;99.90
37410;DHT22;23275;48.914;12.566;2024-01-10T01:39:07;-6.10;99.90
37410;DHT22;23275;48.914;12.566;2024-01-10T01:41:33;-6.10;99.90
37410;DHT22;23275;48.914;12.566;2024-01-10T01:43:58;-6.10;99.90
37410;DHT22;23275;48.914;12.566;2024-01-10T01:46:24;-6.20;99.90
37410;DHT22;23275;48.914;12.566;2024-01-10T01:48:50;-6.20;99.90
37410;DHT22;23275;48.914;12.566;2024-01-10T01:51:20;-6.20;99.90
37410;DHT22;23275;48.914;12.566;2024-01-10T01:53:48;-6.20;99.90
37410;DHT22;23275;48.914;12.566;2024-01-10T01:56:14;-6.10;99.90
37410;DHT22;23275;48.914;12.566;2024-01-10T01:58:40;-6.20;99.90
37410;DHT22;23275;48.914;12.566;2024-01-10T02:01:06;-6.20;99.90
37410;DHT22;23275;48.914;12.566;2024-01-10T02:03:32;-6.30;99.90
37410;DHT22;23275;48.914;12.566;2024-01-10T02:05:59;-6.30;99.90
37410;DHT22;23275;48.914;12.566;2024-01-10T02:08:29;-6.30;99.90
37410;DHT22;23275;48.914;12.566;2024-01-10T02:10:55;-6.30;99.90
37410;DHT22;23275;48.914;12.566;2024-01-10T02:13:20;-6.30;99.90
37410;DHT22;23275;48.914;12.566;2024-01-10T02:15:46;-6.30;99.90
37410;DHT22;23275;48.914;12.566;2024-01-10T02:18:11;-6.30;99.90
37410;DHT22;23275;48.914;12.566;2024-01-10T02:20:39;-6.30;99.90
37410;DHT22;23275;48.914;12.566;2024-01-10T02:23:05;-6.30;99.90
37410;DHT22;23275;48.914;12.566;2024-01-10T02:25:30;-6.20;99.90
37410;DHT22;23275;48.914;12.566;2024-01-10T02:27:56;-6.20;99.90
37410;DHT22;23275;48.914;12.566;2024-01-10T02:30:21;-6.20;99.90
37410;DHT22;23275;48.914;12.566;2024-01-10T02:32:47;-6.20;99.90
37410;DHT22;23275;48.914;12.566;2024-01-10T02:35:12;-6.20;99.90
37410;DHT22;23275;48.914;12.566;2024-01-10T02:37:38;-6.20;99.90
37410;DHT22;23275;48.914;12.566;2024-01-10T02:40:04;-6.20;99.90
37410;DHT22;23275;48.914;12.566;2024-01-10T02:42:30;-6.20;99.90
37410;DHT22;23275;48.914;12.566;2024-01-10T02:44:56;-6.20;99.90
37410;DHT22;23275;48.914;12.566;2024-01-10T02:47:21;-6.20;99.90
37410;DHT22;23275;48.914;12.566;2024-01-10T02:49:47;-6.30;99.90
37410;DHT22;23275;48.914;12.566;2024-01-10T02:52:13;-6.30;99.90
37410;DHT22;23275;48.914;12.566;2024-01-10T02:54:38;-6.30;99.90
37410;DHT22;23275;48.914;12.566;2024-01-10T02:57:04;-6.40;99.90
37410;DHT22;23275;48.914;12.566;2024-01-10T02:59:29;-6.40;99.90
37410;DHT22;23275;48.914;12.566;2024-01-10T03:01:55;-6.40;99.90
37410;DHT22;23275;48.914;12.566;2024-01-10T03:04:21;-6.40;99.90
37410;DHT22;23275;48.914;12.566;2024-01-10T03:06:46;-6.40;99.90
37410;DHT22;23275;48.914;12.566;2024-01-10T03:09:12;-6.40;99.90
37410;DHT22;23275;48.914;12.566;2024-01-10T03:11:37;-6.40;99.90
37410;DHT22;23275;48.914;12.566;2024-01-10T03:14:06;-6.40;99.90
37410;DHT22;23275;48.914;12.566;2024-01-10T03:16:33;-6.40;99.90
37410;DHT22;23275;48.914;12.566;2024-01-10T03:18:58;-6.40;99.90
37410;DHT22;23275;48.914;12.566;2024-01-10T03:21:24;-6.50;99.90
37410;DHT22;23275;48.914;12.566;2024-01-10T03:23:55;-6.50;99.90
37410;DHT22;23275;48.914;12.566;2024-01-10T03:26:22;-6.50;99.90
37410;DHT22;23275;48.914;12.566;2024-01-10T03:28:48;-6.60;99.90
37410;DHT22;23275;48.914;12.566;2024-01-10T03:31:14;-6.60;99.90
37410;DHT22;23275;48.914;12.566;2024-01-10T03:33:40;-6.60;99.90
37410;DHT22;23275;48.914;12.566;2024-01-10T03:36:06;-6.60;99.90
37410;DHT22;23275;48.914;12.566;2024-01-10T03:38:32;-6.50;99.90
37410;DHT22;23275;48.914;12.566;2024-01-10T03:40:58;-6.50;99.90
37410;DHT22;23275;48.914;12.566;2024-01-10T03:43:23;-6.50;99.90
37410;DHT22;23275;48.914;12.566;2024-01-10T03:45:49;-6.50;99.90
37410;DHT22;23275;48.914;12.566;2024-01-10T03:48:14;-6.50;99.90
37410;DHT22;23275;48.914;12.566;2024-01-10T03:50:40;-6.50;99.90
37410;DHT22;23275;48.914;12.566;2024-01-10T03:53:07;-6.50;99.90
37410;DHT22;23275;48.914;12.566;2024-01-10T03:55:34;-6.40;99.90
37410;DHT22;23275;48.914;12.566;2024-01-10T03:58:02;-6.40;99.90
37410;DHT22;23275;48.914;12.566;2024-01-10T04:00:28;-6.50;99.90
37410;DHT22;23275;48.914;12.566;2024-01-10T04:02:54;-6.50;99.90
37410;DHT22;23275;48.914;12.566;2024-01-10T04:05:19;-6.50;99.90
37410;DHT22;23275;48.914;12.566;2024-01-10T04:07:46;-6.50;99.90
37410;DHT22;23275;48.914;12.566;2024-01-10T04:10:12;-6.60;99.90
37410;DHT22;23275;48.914;12.566;2024-01-10T04:12:40;-6.60;99.90
37410;DHT22;23275;48.914;12.566;2024-01-10T04:15:06;-6.60;99.90
37410;DHT22;23275;48.914;12.566;2024-01-10T04:17:32;-6.50;99.90
37410;DHT22;23275;48.914;12.566;2024-01-10T04:19:58;-6.60;99.90
37410;DHT22;23275;48.914;12.566;2024-01-10T04:22:24;-6.60;99.90
37410;DHT22;23275;48.914;12.566;2024-01-10T04:24:50;-6.60;99.90
37410;DHT22;23275;48.914;12.566;2024-01-10T04:27:15;-6.60;99.90
37410;DHT22;23275;48.914;12.566;2024-01-10T04:29:41;-6.60;99.90
37410;DHT22;23275;48.914;12.566;2024-01-10T04:32:07;-6.50;99.90
37410;DHT22;23275;48.914;12.566;2024-01-10T04:34:32;-6.60;99.90
37410;DHT22;23275;48.914;12.566;2024-01-10T04:36:58;-6.60;99.90
37410;DHT22;23275;48.914;12.566;2024-01-10T04:39:23;-6.60;99.90
37410;DHT22;23275;48.914;12.566;2024-01-10T04:41:49;-6.60;99.90
37410;DHT22;23275;48.914;12.566;2024-01-10T04:44:15;-6.60;99.90
37410;DHT22;23275;48.914;12.566;2024-01-10T04:46:40;-6.60;99.90
37410;DHT22;23275;48.914;12.566;2024-01-10T04:49:07;-6.60;99.90
37410;DHT22;23275;48.914;12.566;2024-01-10T04:51:33;-6.60;99.90
37410;DHT22;23275;48.914;12.566;2024-01-10T04:53:58;-6.60;99.90
37410;DHT22;23275;48.914;12.566;2024-01-10T04:56:25;-6.60;99.90
37410;DHT22;23275;48.914;12.566;2024-01-10T04:58:50;-6.60;99.90
37410;DHT22;23275;48.914;12.566;2024-01-10T05:01:16;-6.60;99.90
37410;DHT22;23275;48.914;12.566;2024-01-10T05:03:41;-6.60;99.90
37410;DHT22;23275;48.914;12.566;2024-01-10T05:06:07;-6.60;99.90
37410;DHT22;23275;48.914;12.566;2024-01-10T05:08:33;-6.60;99.90
37410;DHT22;23275;48.914;12.566;2024-01-10T05:10:58;-6.60;99.90
37410;DHT22;23275;48.914;12.566;2024-01-10T05:13:24;-6.60;99.90
37410;DHT22;23275;48.914;12.566;2024-01-10T05:15:49;-6.60;99.90
37410;DHT22;23275;48.914;12.566;2024-01-10T05:18:16;-6.60;99.90
37410;DHT22;23275;48.914;12.566;2024-01-10T05:20:42;-6.70;99.90
37410;DHT22;23275;48.914;12.566;2024-01-10T05:23:07;-6.70;99.90
37410;DHT22;23275;48.914;12.566;2024-01-10T05:25:33;-6.60;99.90
37410;DHT22;23275;48.914;12.566;2024-01-10T05:27:59;-6.70;99.90
37410;DHT22;23275;48.914;12.566;2024-01-10T05:30:25;-6.60;99.90
37410;DHT22;23275;48.914;12.566;2024-01-10T05:32:50;-6.70;99.90
37410;DHT22;23275;48.914;12.566;2024-01-10T05:35:16;-6.70;99.90
37410;DHT22;23275;48.914;12.566;2024-01-10T05:37:42;-6.70;99.90
37410;DHT22;23275;48.914;12.566;2024-01-10T05:40:08;-6.70;99.90
37410;DHT22;23275;48.914;12.566;2024-01-10T05:42:37;-6.70;99.90
37410;DHT22;23275;48.914;12.566;2024-01-10T05:45:04;-6.70;99.90
37410;DHT22;23275;48.914;12.566;2024-01-10T05:47:29;-6.60;99.90
37410;DHT22;23275;48.914;12.566;2024-01-10T05:49:55;-6.60;99.90
37410;DHT22;23275;48.914;12.566;2024-01-10T05:52:21;-6.60;99.90
37410;DHT22;23275;48.914;12.566;2024-01-10T05:54:47;-6.60;99.90
37410;DHT22;23275;48.914;12.566;2024-01-10T05:57:17;-6.60;99.90
37410;DHT22;23275;48.914;12.566;2024-01-10T05:59:42;-6.70;99.90
37410;DHT22;23275;48.914;12.566;2024-01-10T06:02:08;-6.60;99.90
37410;DHT22;23275;48.914;12.566;2024-01-10T06:04:33;-6.60;99.90
37410;DHT22;23275;48.914;12.566;2024-01-10T06:06:59;-6.70;99.90
37410;DHT22;23275;48.914;12.566;2024-01-10T06:09:25;-6.70;99.90
37410;DHT22;23275;48.914;12.566;2024-01-10T06:11:50;-6.70;99.90
37410;DHT22;23275;48.914;12.566;2024-01-10T06:14:16;-6.70;99.90
37410;DHT22;23275;48.914;12.566;2024-01-10T06:16:42;-6.70;99.90
37410;DHT22;23275;48.914;12.566;2024-01-10T06:19:09;-6.70;99.90
37410;DHT22;23275;48.914;12.566;2024-01-10T06:21:35;-6.70;99.90
37410;DHT22;23275;48.914;12.566;2024-01-10T06:24:01;-6.60;99.90
37410;DHT22;23275;48.914;12.566;2024-01-10T06:26:27;-6.60;99.90
37410;DHT22;23275;48.914;12.566;2024-01-10T06:28:53;-6.50;99.90
37410;DHT22;23275;48.914;12.566;2024-01-10T06:31:19;-6.50;99.90
37410;DHT22;23275;48.914;12.566;2024-01-10T06:33:45;-6.40;99.90
37410;DHT22;23275;48.914;12.566;2024-01-10T06:36:11;-6.40;99.90
37410;DHT22;23275;48.914;12.566;2024-01-10T06:38:38;-6.40;99.90
37410;DHT22;23275;48.914;12.566;2024-01-10T06:41:08;-6.40;99.90
37410;DHT22;23275;48.914;12.566;2024-01-10T06:43:34;-6.40;99.90
37410;DHT22;23275;48.914;12.566;2024-01-10T06:46:00;-6.40;99.90
37410;DHT22;23275;48.914;12.566;2024-01-10T06:48:25;-6.40;99.90
37410;DHT22;23275;48.914;12.566;2024-01-10T06:50:51;-6.40;99.90
37410;DHT22;23275;48.914;12.566;2024-01-10T06:53:16;-6.30;99.90
37410;DHT22;23275;48.914;12.566;2024-01-10T06:55:42;-6.30;99.90
37410;DHT22;23275;48.914;12.566;2024-01-10T06:58:07;-6.40;99.90
37410;DHT22;23275;48.914;12.566;2024-01-10T07:00:33;-6.30;99.90
37410;DHT22;23275;48.914;12.566;2024-01-10T07:03:01;-6.30;99.90
37410;DHT22;23275;48.914;12.566;2024-01-10T07:05:27;-6.30;99.90
37410;DHT22;23275;48.914;12.566;2024-01-10T07:07:53;-6.30;99.90
37410;DHT22;23275;48.914;12.566;2024-01-10T07:10:19;-6.20;99.90
37410;DHT22;23275;48.914;12.566;2024-01-10T07:12:44;-6.20;99.90
37410;DHT22;23275;48.914;12.566;2024-01-10T07:15:10;-6.10;99.90
37410;DHT22;23275;48.914;12.566;2024-01-10T07:17:37;-6.00;99.90
37410;DHT22;23275;48.914;12.566;2024-01-10T07:20:03;-6.00;99.90
37410;DHT22;23275;48.914;12.566;2024-01-10T07:22:29;-6.00;99.90
37410;DHT22;23275;48.914;12.566;2024-01-10T07:24:54;-6.00;99.90
37410;DHT22;23275;48.914;12.566;2024-01-10T07:27:20;-5.70;99.90
37410;DHT22;23275;48.914;12.566;2024-01-10T07:29:45;-5.50;99.90
37410;DHT22;23275;48.914;12.566;2024-01-10T07:32:11;-5.40;99.90
37410;DHT22;23275;48.914;12.566;2024-01-10T07:34:37;-5.30;99.90
37410;DHT22;23275;48.914;12.566;2024-01-10T07:37:03;-5.20;99.90
37410;DHT22;23275;48.914;12.566;2024-01-10T07:39:28;-5.00;99.90
37410;DHT22;23275;48.914;12.566;2024-01-10T07:41:54;-4.90;99.90
37410;DHT22;23275;48.914;12.566;2024-01-10T07:44:20;-4.80;99.90
37410;DHT22;23275;48.914;12.566;2024-01-10T07:46:45;-4.60;99.90
37410;DHT22;23275;48.914;12.566;2024-01-10T07:49:11;-4.40;99.90
37410;DHT22;23275;48.914;12.566;2024-01-10T07:51:36;-3.70;99.90
37410;DHT22;23275;48.914;12.566;2024-01-10T07:54:02;-2.60;99.90
37410;DHT22;23275;48.914;12.566;2024-01-10T07:56:28;-2.40;99.90
37410;DHT22;23275;48.914;12.566;2024-01-10T07:58:55;-2.70;99.90
37410;DHT22;23275;48.914;12.566;2024-01-10T08:01:21;-3.00;99.90
37410;DHT22;23275;48.914;12.566;2024-01-10T08:03:46;-3.20;99.90
37410;DHT22;23275;48.914;12.566;2024-01-10T08:06:12;-3.00;99.90
37410;DHT22;23275;48.914;12.566;2024-01-10T08:08:39;-2.80;99.90
37410;DHT22;23275;48.914;12.566;2024-01-10T08:11:04;-2.00;99.90
37410;DHT22;23275;48.914;12.566;2024-01-10T08:13:31;-0.90;99.90
37410;DHT22;23275;48.914;12.566;2024-01-10T08:15:56;0.20;99.90
37410;DHT22;23275;48.914;12.566;2024-01-10T08:18:22;1.20;99.90
37410;DHT22;23275;48.914;12.566;2024-01-10T08:20:48;2.10;99.90
37410;DHT22;23275;48.914;12.566;2024-01-10T08:23:14;2.80;99.90
37410;DHT22;23275;48.914;12.566;2024-01-10T08:25:39;3.10;99.90
37410;DHT22;23275;48.914;12.566;2024-01-10T08:28:06;3.20;99.90
37410;DHT22;23275;48.914;12.566;2024-01-10T08:30:31;4.60;99.90
37410;DHT22;23275;48.914;12.566;2024-01-10T08:32:58;6.20;97.10
37410;DHT22;23275;48.914;12.566;2024-01-10T08:35:24;6.60;93.50
37410;DHT22;23275;48.914;12.566;2024-01-10T08:37:50;7.60;89.70
37410;DHT22;23275;48.914;12.566;2024-01-10T08:40:16;7.90;83.50
37410;DHT22;23275;48.914;12.566;2024-01-10T08:42:42;8.80;81.20
37410;DHT22;23275;48.914;12.566;2024-01-10T08:45:08;8.40;78.50
37410;DHT22;23275;48.914;12.566;2024-01-10T08:47:36;9.00;76.60
37410;DHT22;23275;48.914;12.566;2024-01-10T08:50:03;9.30;74.40
37410;DHT22;23275;48.914;12.566;2024-01-10T08:52:31;9.70;71.60
37410;DHT22;23275;48.914;12.566;2024-01-10T08:54:56;9.20;72.20
37410;DHT22;23275;48.914;12.566;2024-01-10T08:57:22;8.60;71.90
37410;DHT22;23275;48.914;12.566;2024-01-10T08:59:47;6.60;74.30
37410;DHT22;23275;48.914;12.566;2024-01-10T09:02:14;6.20;79.10
37410;DHT22;23275;48.914;12.566;2024-01-10T09:04:40;6.80;77.30
37410;DHT22;23275;48.914;12.566;2024-01-10T09:07:06;7.90;75.30
37410;DHT22;23275;48.914;12.566;2024-01-10T09:09:32;8.70;72.00
37410;DHT22;23275;48.914;12.566;2024-01-10T09:11:58;8.40;71.60
37410;DHT22;23275;48.914;12.566;2024-01-10T09:14:23;10.00;71.40
37410;DHT22;23275;48.914;12.566;2024-01-10T09:16:49;11.00;66.30
37410;DHT22;23275;48.914;12.566;2024-01-10T09:19:15;11.50;64.30
37410;DHT22;23275;48.914;12.566;2024-01-10T09:21:40;11.50;64.30
37410;DHT22;23275;48.914;12.566;2024-01-10T09:24:06;11.30;63.90
37410;DHT22;23275;48.914;12.566;2024-01-10T09:26:34;10.60;63.80
37410;DHT22;23275;48.914;12.566;2024-01-10T09:29:00;10.30;63.00
37410;DHT22;23275;48.914;12.566;2024-01-10T09:31:25;9.30;64.70
37410;DHT22;23275;48.914;12.566;2024-01-10T09:33:51;8.80;67.00
37410;DHT22;23275;48.914;12.566;2024-01-10T09:36:16;8.50;67.90
37410;DHT22;23275;48.914;12.566;2024-01-10T09:38:42;7.70;68.30
37410;DHT22;23275;48.914;12.566;2024-01-10T09:41:08;7.80;69.60
37410;DHT22;23275;48.914;12.566;2024-01-10T09:43:34;7.30;70.20
37410;DHT22;23275;48.914;12.566;2024-01-10T09:46:00;7.60;71.60
37410;DHT22;23275;48.914;12.566;2024-01-10T09:48:28;8.20;69.60
37410;DHT22;23275;48.914;12.566;2024-01-10T09:50:55;8.60;68.70
37410;DHT22;23275;48.914;12.566;2024-01-10T09:53:22;8.60;69.00
37410;DHT22;23275;48.914;12.566;2024-01-10T09:55:56;8.50;68.80
37410;DHT22;23275;48.914;12.566;2024-01-10T09:58:28;8.70;68.20
37410;DHT22;23275;48.914;12.566;2024-01-10T10:00:54;8.90;66.70
37410;DHT22;23275;48.914;12.566;2024-01-10T10:03:20;9.90;67.00
37410;DHT22;23275;48.914;12.566;2024-01-10T10:05:46;9.90;65.20
37410;DHT22;23275;48.914;12.566;2024-01-10T10:08:13;10.50;64.80
37410;DHT22;23275;48.914;12.566;2024-01-10T10:10:48;11.20;62.60
37410;DHT22;23275;48.914;12.566;2024-01-10T10:13:27;11.50;61.80
37410;DHT22;23275;48.914;12.566;2024-01-10T10:15:58;11.70;60.70
37410;DHT22;23275;48.914;12.566;2024-01-10T10:18:28;12.20;60.40
37410;DHT22;23275;48.914;12.566;2024-01-10T10:21:11;11.50;61.30
37410;DHT22;23275;48.914;12.566;2024-01-10T10:23:37;11.70;61.30
37410;DHT22;23275;48.914;12.566;2024-01-10T10:26:13;11.70;61.60
37410;DHT22;23275;48.914;12.566;2024-01-10T10:28:44;11.80;60.40
37410;DHT22;23275;48.914;12.566;2024-01-10T10:31:10;12.30;59.90
37410;DHT22;23275;48.914;12.566;2024-01-10T10:33:37;12.80;58.90
37410;DHT22;23275;48.914;12.566;2024-01-10T10:36:03;13.40;57.40
37410;DHT22;23275;48.914;12.566;2024-01-10T10:38:28;13.80;56.70
37410;DHT22;23275;48.914;12.566;2024-01-10T10:40:55;14.10;56.30
37410;DHT22;23275;48.914;12.566;2024-01-10T10:43:21;14.20;54.40
37410;DHT22;23275;48.914;12.566;2024-01-10T10:45:48;14.10;54.80
37410;DHT22;23275;48.914;12.566;2024-01-10T10:48:17;14.00;55.70
37410;DHT22;23275;48.914;12.566;2024-01-10T10:53:22;14.20;53.50
37410;DHT22;23275;48.914;12.566;2024-01-10T10:55:50;13.20;54.30
37410;DHT22;23275;48.914;12.566;2024-01-10T10:58:17;11.20;57.00
37410;DHT22;23275;48.914;12.566;2024-01-10T11:00:43;9.30;60.50
37410;DHT22;23275;48.914;12.566;2024-01-10T11:03:10;7.50;65.30
37410;DHT22;23275;48.914;12.566;2024-01-10T11:05:40;6.10;70.20
37410;DHT22;23275;48.914;12.566;2024-01-10T11:08:08;4.90;73.00
37410;DHT22;23275;48.914;12.566;2024-01-10T11:10:37;4.30;77.50
37410;DHT22;23275;48.914;12.566;2024-01-10T11:13:32;3.60;80.10
37410;DHT22;23275;48.914;12.566;2024-01-10T11:19:08;2.20;84.00
37410;DHT22;23275;48.914;12.566;2024-01-10T11:24:13;1.70;87.50
37410;DHT22;23275;48.914;12.566;2024-01-10T11:26:39;1.30;90.50
37410;DHT22;23275;48.914;12.566;2024-01-10T11:29:05;1.20;90.90
37410;DHT22;23275;48.914;12.566;2024-01-10T11:31:32;1.30;92.10
37410;DHT22;23275;48.914;12.566;2024-01-10T11:33:58;1.20;92.60
37410;DHT22;23275;48.914;12.566;2024-01-10T11:36:25;1.30;92.70
37410;DHT22;23275;48.914;12.566;2024-01-10T11:41:32;1.30;93.40
37410;DHT22;23275;48.914;12.566;2024-01-10T11:46:46;0.70;95.00
37410;DHT22;23275;48.914;12.566;2024-01-10T11:49:16;0.50;95.40
37410;DHT22;23275;48.914;12.566;2024-01-10T11:51:46;0.50;95.40
37410;DHT22;23275;48.914;12.566;2024-01-10T11:54:12;0.50;95.70
37410;DHT22;23275;48.914;12.566;2024-01-10T11:56:40;0.60;97.30
37410;DHT22;23275;48.914;12.566;2024-01-10T11:59:12;0.50;96.90
37410;DHT22;23275;48.914;12.566;2024-01-10T12:01:41;0.50;97.20
37410;DHT22;23275;48.914;12.566;2024-01-10T12:04:07;0.40;97.40
37410;DHT22;23275;48.914;12.566;2024-01-10T12:06:35;0.40;97.80
37410;DHT22;23275;48.914;12.566;2024-01-10T12:09:02;0.30;98.10
37410;DHT22;23275;48.914;12.566;2024-01-10T12:11:30;0.40;98.60
37410;DHT22;23275;48.914;12.566;2024-01-10T12:13:55;0.40;98.80
37410;DHT22;23275;48.914;12.566;2024-01-10T12:16:23;0.50;98.90
37410;DHT22;23275;48.914;12.566;2024-01-10T12:18:49;0.70;98.30
37410;DHT22;23275;48.914;12.566;2024-01-10T12:21:15;0.80;97.90
37410;DHT22;23275;48.914;12.566;2024-01-10T12:23:41;1.00;97.50
37410;DHT22;23275;48.914;12.566;2024-01-10T12:26:08;1.10;98.10
37410;DHT22;23275;48.914;12.566;2024-01-10T12:28:35;1.30;98.20
37410;DHT22;23275;48.914;12.566;2024-01-10T12:31:01;1.30;97.80
37410;DHT22;23275;48.914;12.566;2024-01-10T12:33:27;1.20;98.00
37410;DHT22;23275;48.914;12.566;2024-01-10T12:36:08;1.20;98.40
37410;DHT22;23275;48.914;12.566;2024-01-10T12:38:35;1.30;98.30
37410;DHT22;23275;48.914;12.566;2024-01-10T12:41:01;1.40;98.10
37410;DHT22;23275;48.914;12.566;2024-01-10T12:43:27;1.50;98.50
37410;DHT22;23275;48.914;12.566;2024-01-10T12:46:08;1.50;98.50
37410;DHT22;23275;48.914;12.566;2024-01-10T12:48:36;1.30;98.20
37410;DHT22;23275;48.914;12.566;2024-01-10T12:51:06;1.20;98.70
37410;DHT22;23275;48.914;12.566;2024-01-10T12:53:43;1.20;98.80
37410;DHT22;23275;48.914;12.566;2024-01-10T12:56:10;1.30;99.00
37410;DHT22;23275;48.914;12.566;2024-01-10T12:58:40;1.20;99.00
37410;DHT22;23275;48.914;12.566;2024-01-10T13:01:08;1.30;98.70
37410;DHT22;23275;48.914;12.566;2024-01-10T13:03:34;1.20;98.60
37410;DHT22;23275;48.914;12.566;2024-01-10T13:05:59;1.20;97.90
37410;DHT22;23275;48.914;12.566;2024-01-10T13:08:25;1.30;97.80
37410;DHT22;23275;48.914;12.566;2024-01-10T13:10:51;1.20;97.30
37410;DHT22;23275;48.914;12.566;2024-01-10T13:13:16;1.00;97.80
37410;DHT22;23275;48.914;12.566;2024-01-10T13:15:47;1.00;97.90
37410;DHT22;23275;48.914;12.566;2024-01-10T13:18:12;1.00;98.40
37410;DHT22;23275;48.914;12.566;2024-01-10T13:20:39;1.00;99.00
37410;DHT22;23275;48.914;12.566;2024-01-10T13:23:05;0.70;98.20
37410;DHT22;23275;48.914;12.566;2024-01-10T13:25:31;0.70;98.90
37410;DHT22;23275;48.914;12.566;2024-01-10T13:27:57;0.80;99.40
37410;DHT22;23275;48.914;12.566;2024-01-10T13:30:22;0.80;99.60
37410;DHT22;23275;48.914;12.566;2024-01-10T13:32:48;0.80;99.30
37410;DHT22;23275;48.914;12.566;2024-01-10T13:35:14;0.60;98.60
37410;DHT22;23275;48.914;12.566;2024-01-10T13:37:42;0.40;98.90
37410;DHT22;23275;48.914;12.566;2024-01-10T13:40:09;0.40;99.90
37410;DHT22;23275;48.914;12.566;2024-01-10T13:42:36;0.50;99.90
37410;DHT22;23275;48.914;12.566;2024-01-10T13:45:04;0.50;99.80
37410;DHT22;23275;48.914;12.566;2024-01-10T13:47:30;0.50;99.90
37410;DHT22;23275;48.914;12.566;2024-01-10T13:49:56;0.60;99.90
37410;DHT22;23275;48.914;12.566;2024-01-10T13:52:22;0.60;99.90
37410;DHT22;23275;48.914;12.566;2024-01-10T13:54:47;0.60;99.90
37410;DHT22;23275;48.914;12.566;2024-01-10T13:57:13;0.50;99.80
37410;DHT22;23275;48.914;12.566;2024-01-10T13:59:38;0.60;99.90
37410;DHT22;23275;48.914;12.566;2024-01-10T14:02:04;0.60;99.90
37410;DHT22;23275;48.914;12.566;2024-01-10T14:04:30;0.50;99.90
37410;DHT22;23275;48.914;12.566;2024-01-10T14:06:55;0.50;99.90
37410;DHT22;23275;48.914;12.566;2024-01-10T14:09:21;0.50;99.90
37410;DHT22;23275;48.914;12.566;2024-01-10T14:11:46;0.40;99.90
37410;DHT22;23275;48.914;12.566;2024-01-10T14:14:15;0.40;99.90
37410;DHT22;23275;48.914;12.566;2024-01-10T14:16:41;0.30;99.90
37410;DHT22;23275;48.914;12.566;2024-01-10T14:19:06;0.30;99.90
37410;DHT22;23275;48.914;12.566;2024-01-10T14:21:32;0.20;99.90
37410;DHT22;23275;48.914;12.566;2024-01-10T14:24:06;0.20;99.90
37410;DHT22;23275;48.914;12.566;2024-01-10T14:26:32;0.20;99.90
37410;DHT22;23275;48.914;12.566;2024-01-10T14:28:57;0.10;99.90
37410;DHT22;23275;48.914;12.566;2024-01-10T14:31:27;0.10;99.90
37410;DHT22;23275;48.914;12.566;2024-01-10T14:33:52;0.00;99.90
37410;DHT22;23275;48.914;12.566;2024-01-10T14:36:19;0.00;99.90
37410;DHT22;23275;48.914;12.566;2024-01-10T14:38:44;0.00;99.90
37410;DHT22;23275;48.914;12.566;2024-01-10T14:41:10;-0.10;99.90
37410;DHT22;23275;48.914;12.566;2024-01-10T14:43:36;-0.10;99.90
37410;DHT22;23275;48.914;12.566;2024-01-10T14:46:03;-0.10;99.90
37410;DHT22;23275;48.914;12.566;2024-01-10T14:48:29;-0.20;99.90
37410;DHT22;23275;48.914;12.566;2024-01-10T14:50:54;-0.20;99.90
37410;DHT22;23275;48.914;12.566;2024-01-10T14:53:20;-0.30;99.90
37410;DHT22;23275;48.914;12.566;2024-01-10T14:55:50;-0.30;99.90
37410;DHT22;23275;48.914;12.566;2024-01-10T14:58:16;-0.30;99.90
37410;DHT22;23275;48.914;12.566;2024-01-10T15:00:43;-0.40;99.90
37410;DHT22;23275;48.914;12.566;2024-01-10T15:03:09;-0.50;99.90
37410;DHT22;23275;48.914;12.566;2024-01-10T15:05:35;-0.50;99.90
37410;DHT22;23275;48.914;12.566;2024-01-10T15:08:05;-0.60;99.90
37410;DHT22;23275;48.914;12.566;2024-01-10T15:10:33;-0.60;99.90
37410;DHT22;23275;48.914;12.566;2024-01-10T15:12:59;-0.60;99.90
37410;DHT22;23275;48.914;12.566;2024-01-10T15:15:25;-0.70;99.90
37410;DHT22;23275;48.914;12.566;2024-01-10T15:17:51;-0.70;99.90
37410;DHT22;23275;48.914;12.566;2024-01-10T15:20:18;-0.80;99.90
37410;DHT22;23275;48.914;12.566;2024-01-10T15:22:43;-0.80;99.90
37410;DHT22;23275;48.914;12.566;2024-01-10T15:25:09;-0.90;99.90
37410;DHT22;23275;48.914;12.566;2024-01-10T15:27:36;-1.00;99.90
37410;DHT22;23275;48.914;12.566;2024-01-10T15:30:02;-1.00;99.90